Time;durP1;ratioP1;P1;durP2;ratioP2;P2;SDS_P1;SDS_P2;PMS_P1;PMS_P2;Temp;Humidity;BMP_temperature;BMP_pressure;BME280_temperature;BME280_humidity;BME280_pressure;Samples;Min_cycle;Max_cycle;Signal;HPM_P1;HPM_P2
2021/06/07 00:00:49;;;;;;;;;10.25;10.25;;;;;19.65;52.62;101870.53;5115693;27;45506;-47
2021/06/07 00:03:15;;;;;;;;;13.00;11.50;;;;;19.60;52.82;101856.50;5118363;27;45504;-46
2021/06/07 00:05:40;;;;;;;;;11.50;9.25;;;;;19.57;53.09;101855.72;5085046;27;45434;-48
2021/06/07 00:08:06;;;;;;;;;9.75;7.50;;;;;19.58;52.75;101860.13;5108263;27;45429;-47
2021/06/07 00:10:32;;;;;;;;;9.50;9.50;;;;;19.55;53.03;101860.25;5111458;27;45270;-45
2021/06/07 00:12:58;;;;;;;;;12.25;10.25;;;;;19.48;52.87;101849.81;5102933;27;45247;-47
2021/06/07 00:15:26;;;;;;;;;10.25;10.25;;;;;19.49;52.93;101851.50;5084655;27;47367;-45
2021/06/07 00:17:51;;;;;;;;;11.25;9.50;;;;;19.45;52.99;101852.56;5102869;27;45488;-46
2021/06/07 00:20:32;;;;;;;;;10.50;10.50;;;;;19.40;53.38;101848.31;5103141;27;45260;-47
2021/06/07 00:22:58;;;;;;;;;11.00;9.50;;;;;19.35;53.51;101845.78;5098674;27;45828;-44
2021/06/07 00:25:23;;;;;;;;;11.50;9.00;;;;;19.26;53.60;101832.78;5107831;27;45517;-49
2021/06/07 00:27:49;;;;;;;;;11.25;11.25;;;;;19.22;53.67;101839.13;5103120;27;45287;-46
2021/06/07 00:30:15;;;;;;;;;9.25;9.00;;;;;19.20;53.44;101847.19;5084648;27;45292;-47
2021/06/07 00:32:40;;;;;;;;;11.25;10.00;;;;;19.15;53.77;101838.47;5084468;27;45313;-46
2021/06/07 00:35:06;;;;;;;;;8.75;8.00;;;;;19.12;53.73;101842.09;5102618;27;46098;-45
2021/06/07 00:37:32;;;;;;;;;13.00;11.50;;;;;19.07;54.19;101840.50;5102605;27;45378;-48
2021/06/07 00:39:57;;;;;;;;;11.25;11.00;;;;;19.04;54.28;101843.28;5102951;27;45287;-44
2021/06/07 00:42:22;;;;;;;;;9.25;9.25;;;;;18.98;54.31;101836.34;5084342;27;46189;-45
2021/06/07 00:44:48;;;;;;;;;10.25;10.25;;;;;18.96;54.61;101843.53;5102671;27;45236;-44
2021/06/07 00:47:14;;;;;;;;;9.25;7.25;;;;;18.95;54.68;101842.63;5102692;27;45326;-48
2021/06/07 00:49:41;;;;;;;;;10.00;9.75;;;;;18.91;54.83;101843.66;5102684;27;45456;-45
2021/06/07 00:52:06;;;;;;;;;9.25;9.25;;;;;18.90;54.58;101841.91;5101943;27;45252;-45
2021/06/07 00:54:31;;;;;;;;;10.75;9.75;;;;;18.87;54.80;101847.31;5101592;27;46007;-49
2021/06/07 00:56:57;;;;;;;;;10.75;10.75;;;;;18.86;54.93;101850.03;5084278;27;45294;-46
2021/06/07 00:59:22;;;;;;;;;10.25;10.25;;;;;18.78;54.90;101840.50;5102597;27;45359;-47
2021/06/07 01:01:48;;;;;;;;;11.00;9.00;;;;;18.77;54.96;101838.75;5122666;27;45194;-47
2021/06/07 01:04:13;;;;;;;;;11.50;11.50;;;;;18.73;55.13;101831.78;5090992;27;45282;-45
2021/06/07 01:06:39;;;;;;;;;11.50;10.00;;;;;18.76;55.27;101841.47;5102220;27;45169;-46
2021/06/07 01:09:05;;;;;;;;;9.50;8.25;;;;;18.75;55.33;101847.69;5116166;27;45483;-47
2021/06/07 01:11:32;;;;;;;;;9.50;9.50;;;;;18.70;55.65;101846.97;5102412;27;45441;-49
2021/06/07 01:13:58;;;;;;;;;10.75;9.75;;;;;18.68;55.51;101849.69;5101765;27;46550;-48
2021/06/07 01:16:23;;;;;;;;;9.25;8.50;;;;;18.58;55.82;101841.09;5101950;27;45781;-48
2021/06/07 01:18:50;;;;;;;;;9.25;8.75;;;;;18.57;55.90;101843.81;5102386;27;45406;-48
2021/06/07 01:21:19;;;;;;;;;10.25;10.25;;;;;18.51;55.92;101843.09;5102006;27;45534;-47
2021/06/07 01:23:46;;;;;;;;;12.25;10.25;;;;;18.52;55.87;101846.59;5101725;27;45314;-50
2021/06/07 01:26:13;;;;;;;;;11.25;9.00;;;;;18.51;56.15;101840.44;5101928;27;45334;-46
2021/06/07 01:28:39;;;;;;;;;9.25;9.25;;;;;18.47;56.26;101846.72;5083607;27;45392;-46
2021/06/07 01:31:07;;;;;;;;;9.75;9.75;;;;;18.48;56.32;101843.16;5102023;27;45375;-49
2021/06/07 01:33:34;;;;;;;;;10.00;10.00;;;;;18.45;56.37;101837.06;5130878;27;46247;-47
2021/06/07 01:36:03;;;;;;;;;13.25;11.00;;;;;18.42;56.31;101837.16;5094932;27;45310;-45
2021/06/07 01:38:28;;;;;;;;;11.00;11.00;;;;;18.38;56.27;101847.03;5083451;27;45352;-45
2021/06/07 01:40:59;;;;;;;;;13.00;10.00;;;;;18.37;56.55;101839.09;5101932;27;45252;-48
2021/06/07 01:43:27;;;;;;;;;12.25;9.00;;;;;18.31;56.62;101829.47;5101633;27;45629;-50
2021/06/07 01:45:53;;;;;;;;;9.50;9.50;;;;;18.29;56.54;101834.00;5101766;27;45331;-46
2021/06/07 01:48:20;;;;;;;;;7.25;7.25;;;;;18.26;56.66;101831.41;5101688;27;45270;-48
2021/06/07 01:50:46;;;;;;;;;12.25;11.25;;;;;18.22;56.78;101829.75;5101619;27;45346;-47
2021/06/07 01:53:13;;;;;;;;;8.50;8.50;;;;;18.21;56.74;101836.00;5101336;27;46467;-47
2021/06/07 01:55:45;;;;;;;;;11.00;10.75;;;;;18.15;57.00;101823.72;5101498;27;45318;-49
2021/06/07 01:58:13;;;;;;;;;9.25;8.25;;;;;18.12;57.34;101823.84;5101458;27;45264;-46
2021/06/07 02:00:52;;;;;;;;;10.25;10.25;;;;;18.07;57.21;101825.75;5111977;27;45359;-46
2021/06/07 02:03:20;;;;;;;;;9.50;9.25;;;;;18.03;57.20;101819.66;5127387;27;47445;-46
2021/06/07 02:05:49;;;;;;;;;11.75;11.75;;;;;18.03;57.09;101832.94;5129304;27;45479;-45
2021/06/07 02:08:16;;;;;;;;;10.00;10.00;;;;;17.99;57.44;101829.50;5088652;27;45197;-48
2021/06/07 02:10:45;;;;;;;;;10.25;9.25;;;;;17.91;57.50;101827.94;5089368;27;45472;-45
2021/06/07 02:13:12;;;;;;;;;6.50;6.25;;;;;17.87;57.68;101828.03;5101138;27;45311;-46
2021/06/07 02:15:38;;;;;;;;;10.50;9.25;;;;;17.86;57.86;101825.38;5101076;27;45318;-47
2021/06/07 02:18:06;;;;;;;;;11.75;10.75;;;;;17.82;57.83;101824.63;5101150;27;45284;-49
2021/06/07 02:20:32;;;;;;;;;8.50;8.25;;;;;17.78;57.74;101820.28;5099799;27;45550;-46
2021/06/07 02:22:57;;;;;;;;;9.50;8.25;;;;;17.75;57.97;101828.34;5100790;27;46349;-46
2021/06/07 02:25:23;;;;;;;;;10.00;10.00;;;;;17.76;57.91;101824.78;5101013;27;45380;-45
2021/06/07 02:27:50;;;;;;;;;11.00;10.75;;;;;17.75;57.84;101825.69;5101227;27;45279;-48
2021/06/07 02:30:19;;;;;;;;;10.00;9.25;;;;;17.73;58.21;101821.34;5101101;27;45240;-48
2021/06/07 02:32:45;;;;;;;;;11.00;11.00;;;;;17.68;57.95;101822.34;5100831;27;46107;-50
2021/06/07 02:35:13;;;;;;;;;10.00;9.00;;;;;17.68;57.86;101829.44;5100732;27;46025;-48
2021/06/07 02:37:39;;;;;;;;;9.75;8.75;;;;;17.64;58.26;101827.78;5100976;27;45306;-49
2021/06/07 02:40:06;;;;;;;;;7.75;7.75;;;;;17.62;58.15;101821.63;5100774;27;45469;-49
2021/06/07 02:42:32;;;;;;;;;12.50;9.75;;;;;17.55;58.12;101815.59;5100651;27;45258;-51
2021/06/07 02:44:57;;;;;;;;;8.75;8.50;;;;;17.52;58.23;101820.97;5100872;27;45207;-48
2021/06/07 02:47:22;;;;;;;;;9.75;9.00;;;;;17.54;58.48;101833.31;5120900;27;45223;-45
2021/06/07 02:49:48;;;;;;;;;10.25;10.25;;;;;17.52;58.24;101824.53;5122329;27;45297;-47
2021/06/07 02:52:13;;;;;;;;;12.00;11.50;;;;;17.51;58.50;101828.09;5082072;27;48180;-47
2021/06/07 02:54:39;;;;;;;;;12.00;10.75;;;;;17.50;58.88;101834.31;5100748;27;45223;-48
2021/06/07 02:57:05;;;;;;;;;11.50;10.50;;;;;17.46;58.77;101832.66;5100813;27;45462;-46
2021/06/07 02:59:30;;;;;;;;;11.75;10.25;;;;;17.43;58.50;101823.88;5083197;27;45658;-50
2021/06/07 03:01:55;;;;;;;;;13.00;12.00;;;;;17.43;58.58;101839.81;5102482;27;45358;-48
2021/06/07 03:04:21;;;;;;;;;13.75;12.25;;;;;17.40;58.81;101832.81;5106343;27;45343;-47
2021/06/07 03:06:47;;;;;;;;;7.50;6.75;;;;;17.38;58.63;101832.84;5100647;27;45484;-46
2021/06/07 03:09:12;;;;;;;;;10.00;10.00;;;;;17.35;59.08;101840.03;5113157;27;45457;-48
2021/06/07 03:11:37;;;;;;;;;12.50;11.75;;;;;17.33;58.68;101841.84;5100354;27;46198;-50
2021/06/07 03:14:03;;;;;;;;;12.50;12.50;;;;;17.29;59.11;101830.41;5128943;27;45418;-49
2021/06/07 03:16:28;;;;;;;;;11.50;11.00;;;;;17.24;59.02;101834.13;5114424;27;45703;-47
2021/06/07 03:18:53;;;;;;;;;13.50;11.50;;;;;17.22;59.25;101835.00;5104057;27;45438;-46
2021/06/07 03:21:19;;;;;;;;;11.75;10.25;;;;;17.19;59.04;101831.56;5103895;27;45405;-46
2021/06/07 03:23:45;;;;;;;;;13.75;11.50;;;;;17.19;59.16;101836.88;5103852;27;45413;-48
2021/06/07 03:26:10;;;;;;;;;10.50;9.50;;;;;17.11;58.89;101818.47;5104267;27;45496;-48
2021/06/07 03:28:37;;;;;;;;;12.50;12.50;;;;;17.16;59.14;101835.16;5103640;27;45433;-45
2021/06/07 03:31:04;;;;;;;;;12.50;10.50;;;;;17.15;59.08;101829.91;5103963;27;45330;-48
2021/06/07 03:33:30;;;;;;;;;13.25;11.25;;;;;17.16;59.04;101834.31;5103848;27;45173;-45
2021/06/07 03:35:56;;;;;;;;;13.00;10.50;;;;;17.13;59.39;101829.06;5103729;27;45212;-48
2021/06/07 03:38:27;;;;;;;;;7.50;7.25;;;;;17.13;59.36;101840.56;5103752;27;45272;-48
2021/06/07 03:40:55;;;;;;;;;13.25;9.75;;;;;17.11;59.47;101831.75;5103781;27;45386;-46
2021/06/07 03:43:23;;;;;;;;;11.25;11.25;;;;;17.12;59.45;101829.97;5103426;27;45509;-47
2021/06/07 03:45:50;;;;;;;;;11.75;10.50;;;;;17.11;59.40;101823.78;5103780;27;45294;-48
2021/06/07 03:48:15;;;;;;;;;13.25;12.00;;;;;17.11;59.36;101822.94;5103549;27;45420;-49
2021/06/07 03:50:41;;;;;;;;;11.50;11.00;;;;;17.08;59.41;101825.63;5103254;27;46290;-47
2021/06/07 03:53:08;;;;;;;;;11.50;11.50;;;;;17.08;59.70;101829.19;5103534;27;45299;-47
2021/06/07 03:55:35;;;;;;;;;12.00;12.00;;;;;17.09;59.32;101830.03;5103599;27;45264;-47
2021/06/07 03:58:00;;;;;;;;;9.50;9.25;;;;;17.09;59.16;101822.94;5103345;27;45193;-48
2021/06/07 04:00:31;;;;;;;;;10.25;9.50;;;;;17.08;59.41;101833.59;5111930;27;46139;-47
2021/06/07 04:02:57;;;;;;;;;12.50;8.50;;;;;17.04;59.62;101816.88;5107702;27;45331;-45
2021/06/07 04:05:23;;;;;;;;;10.75;10.75;;;;;17.02;59.42;101824.03;5103483;27;45275;-45
2021/06/07 04:07:51;;;;;;;;;13.00;11.50;;;;;17.05;59.47;101826.59;5105053;27;45252;-47
2021/06/07 04:10:21;;;;;;;;;9.75;9.75;;;;;17.04;59.52;101827.50;5113739;27;45407;-48
2021/06/07 04:12:48;;;;;;;;;11.25;10.75;;;;;16.92;59.88;101804.78;5101649;27;45249;-47
2021/06/07 04:15:16;;;;;;;;;12.50;12.50;;;;;17.03;59.75;101823.09;5103395;27;45418;-45
2021/06/07 04:17:42;;;;;;;;;17.25;13.25;;;;;16.99;59.39;101819.66;5102818;27;45366;-48
2021/06/07 04:20:10;;;;;;;;;11.75;11.75;;;;;17.00;59.30;101828.47;5102959;27;45288;-45
2021/06/07 04:22:36;;;;;;;;;14.50;14.50;;;;;16.99;59.80;101824.06;5084109;27;46709;-45
2021/06/07 04:25:04;;;;;;;;;10.00;9.25;;;;;17.01;59.63;101827.56;5103381;27;45299;-47
2021/06/07 04:27:29;;;;;;;;;11.00;10.75;;;;;16.99;59.58;101829.38;5102486;27;45632;-49
2021/06/07 04:29:55;;;;;;;;;12.00;12.00;;;;;16.97;59.71;101829.44;5102955;27;46046;-45
2021/06/07 04:32:21;;;;;;;;;12.00;10.25;;;;;16.96;59.70;101829.47;5101425;27;45441;-45
2021/06/07 04:34:46;;;;;;;;;13.75;11.75;;;;;16.99;59.78;101824.97;5084588;27;45363;-49
2021/06/07 04:37:12;;;;;;;;;14.75;14.75;;;;;16.96;59.82;101818.84;5084146;27;45337;-45
2021/06/07 04:39:38;;;;;;;;;12.00;11.75;;;;;16.97;59.98;101832.09;5084412;27;47510;-48
2021/06/07 04:42:04;;;;;;;;;10.50;10.00;;;;;16.98;59.79;101832.94;5102368;27;45339;-47
2021/06/07 04:44:30;;;;;;;;;13.00;13.00;;;;;16.95;59.63;101823.28;5102921;27;45436;-45
2021/06/07 04:46:55;;;;;;;;;13.75;13.75;;;;;17.02;60.03;101840.81;5135815;27;45306;-50
2021/06/07 04:49:20;;;;;;;;;15.75;13.50;;;;;17.01;59.53;101832.88;5111071;27;46318;-46
2021/06/07 04:51:46;;;;;;;;;14.75;14.25;;;;;17.06;59.35;101831.00;5102130;27;45405;-48
2021/06/07 04:54:11;;;;;;;;;13.50;11.75;;;;;17.09;60.03;101832.69;5102933;27;45286;-46
2021/06/07 04:56:37;;;;;;;;;14.75;12.50;;;;;17.05;59.99;101827.44;5102380;27;45417;-49
2021/06/07 04:59:02;;;;;;;;;15.75;14.50;;;;;17.14;59.81;101836.13;5101102;27;47313;-46
2021/06/07 05:01:28;;;;;;;;;17.75;16.25;;;;;17.15;59.62;101832.56;5119933;27;45253;-45
2021/06/07 05:03:53;;;;;;;;;22.75;20.75;;;;;17.14;59.48;101829.00;5093864;27;45530;-46
2021/06/07 05:06:19;;;;;;;;;15.50;14.25;;;;;17.16;59.73;101836.97;5102014;27;45199;-46
2021/06/07 05:08:47;;;;;;;;;12.75;12.00;;;;;17.18;59.90;101830.69;5093978;27;45609;-45
2021/06/07 05:11:13;;;;;;;;;13.75;13.75;;;;;17.19;59.60;101827.13;5086245;27;45712;-45
2021/06/07 05:13:38;;;;;;;;;17.50;16.00;;;;;17.23;59.23;101838.53;5102146;27;45264;-45
2021/06/07 05:16:04;;;;;;;;;11.75;11.75;;;;;17.25;59.42;101836.72;5102060;27;45390;-45
2021/06/07 05:18:31;;;;;;;;;14.25;12.50;;;;;17.29;59.43;101840.19;5101872;27;45322;-46
2021/06/07 05:20:56;;;;;;;;;12.00;11.25;;;;;17.33;59.08;101837.41;5101816;27;45325;-47
2021/06/07 05:23:22;;;;;;;;;12.00;10.25;;;;;17.36;59.08;101836.47;5101990;27;45265;-47
2021/06/07 05:25:48;;;;;;;;;15.50;13.50;;;;;17.38;59.09;101832.84;5101953;27;45213;-46
2021/06/07 05:28:15;;;;;;;;;13.25;12.50;;;;;17.40;58.50;101840.78;5092252;27;46267;-49
2021/06/07 05:30:42;;;;;;;;;14.50;13.00;;;;;17.42;58.78;101844.28;5101898;27;45371;-49
2021/06/07 05:33:08;;;;;;;;;12.25;9.50;;;;;17.44;58.44;101841.59;5083580;27;45379;-47
2021/06/07 05:35:37;;;;;;;;;11.50;11.50;;;;;17.46;58.20;101840.63;5101352;27;46475;-46
2021/06/07 05:38:07;;;;;;;;;11.00;11.00;;;;;17.50;58.50;101838.78;5101774;27;47112;-56
2021/06/07 05:40:34;;;;;;;;;13.50;10.00;;;;;17.52;58.25;101845.78;5100859;27;45398;-54
2021/06/07 05:43:00;;;;;;;;;11.75;11.75;;;;;17.57;58.21;101839.47;5101747;27;45446;-55
2021/06/07 05:45:26;;;;;;;;;15.25;14.00;;;;;17.60;57.97;101837.63;5101695;27;45566;-52
2021/06/07 05:47:54;;;;;;;;;14.00;12.75;;;;;17.64;58.00;101835.75;5129406;27;45535;-54
2021/06/07 05:50:21;;;;;;;;;12.50;12.50;;;;;17.69;57.61;101845.31;5096700;27;45291;-48
2021/06/07 05:52:47;;;;;;;;;12.50;12.50;;;;;17.70;58.17;101846.22;5129810;27;45411;-47
2021/06/07 05:55:19;;;;;;;;;14.00;12.00;;;;;17.78;57.61;101849.53;5114036;27;45500;-53
2021/06/07 05:57:47;;;;;;;;;15.00;13.00;;;;;17.83;57.54;101847.63;5101139;27;45321;-52
2021/06/07 06:00:14;;;;;;;;;11.50;11.00;;;;;17.84;57.52;101841.38;5091250;27;46187;-53
2021/06/07 06:02:41;;;;;;;;;13.25;13.00;;;;;17.92;56.87;101842.97;5121416;27;45312;-51
2021/06/07 06:05:07;;;;;;;;;14.50;14.00;;;;;17.95;56.90;101848.22;5101542;27;45150;-52
2021/06/07 06:07:32;;;;;;;;;16.50;13.25;;;;;18.00;57.07;101851.66;5100974;27;46209;-52
2021/06/07 06:09:58;;;;;;;;;12.75;12.75;;;;;18.05;56.76;101851.50;5114315;27;45191;-53
2021/06/07 06:12:23;;;;;;;;;14.25;12.00;;;;;18.11;56.81;101848.69;5101155;27;45231;-51
2021/06/07 06:14:49;;;;;;;;;11.50;11.25;;;;;18.16;56.84;101852.06;5116924;27;45224;-51
2021/06/07 06:17:14;;;;;;;;;14.50;12.00;;;;;18.22;56.73;101851.03;5107933;27;47618;-51
2021/06/07 06:19:39;;;;;;;;;27.00;23.00;;;;;18.25;56.78;101846.50;5101273;27;45262;-53
2021/06/07 06:22:06;;;;;;;;;15.50;14.50;;;;;18.29;56.52;101847.31;5100924;27;45263;-52
2021/06/07 06:24:33;;;;;;;;;17.25;16.00;;;;;18.29;56.33;101845.50;5101135;27;45392;-50
2021/06/07 06:26:58;;;;;;;;;10.00;9.50;;;;;18.35;56.38;101850.66;5094206;27;45447;-50
2021/06/07 06:29:24;;;;;;;;;14.25;14.25;;;;;18.39;56.34;101854.09;5095363;27;45376;-50
2021/06/07 06:31:49;;;;;;;;;13.00;12.25;;;;;18.42;56.13;101856.66;5101102;27;45473;-48
2021/06/07 06:34:15;;;;;;;;;17.00;14.50;;;;;18.45;56.06;101855.69;5101082;27;45533;-50
2021/06/07 06:36:40;;;;;;;;;15.75;13.00;;;;;18.48;56.02;101859.13;5101360;27;45441;-46
2021/06/07 06:39:06;;;;;;;;;14.75;14.75;;;;;18.51;55.96;101851.06;5109455;27;45405;-48
2021/06/07 06:41:33;;;;;;;;;13.50;12.25;;;;;18.56;55.96;101855.38;5121672;27;45256;-48
2021/06/07 06:43:59;;;;;;;;;13.75;13.25;;;;;18.54;55.82;101843.91;5102961;27;45550;-46
2021/06/07 06:46:25;;;;;;;;;13.75;13.75;;;;;18.62;55.66;101857.84;5121345;27;46050;-46
2021/06/07 06:48:52;;;;;;;;;13.75;11.75;;;;;18.59;55.89;101850.84;5121443;27;45227;-48
2021/06/07 06:51:17;;;;;;;;;14.25;11.75;;;;;18.56;55.38;101828.75;5120104;27;45333;-47
2021/06/07 06:53:43;;;;;;;;;13.50;13.00;;;;;18.69;55.50;101851.41;5121249;27;45311;-46
2021/06/07 06:56:08;;;;;;;;;14.00;12.50;;;;;18.75;55.34;101851.22;5116971;27;46978;-48
2021/06/07 06:58:34;;;;;;;;;13.25;12.75;;;;;18.77;55.36;101841.41;5121217;27;45255;-48
2021/06/07 07:00:59;;;;;;;;;13.75;13.00;;;;;18.79;55.22;101844.00;5121205;27;45453;-51
2021/06/07 07:03:25;;;;;;;;;12.75;12.75;;;;;18.81;54.98;101843.03;5121099;27;45659;-51
2021/06/07 07:05:51;;;;;;;;;15.75;13.75;;;;;18.89;55.15;101848.13;5103359;27;45355;-50
2021/06/07 07:08:19;;;;;;;;;16.25;13.75;;;;;18.92;55.04;101845.41;5106514;27;45284;-48
2021/06/07 07:10:45;;;;;;;;;11.00;11.00;;;;;18.93;54.70;101851.59;5088775;27;45352;-49
2021/06/07 07:13:11;;;;;;;;;16.00;14.50;;;;;18.95;54.79;101849.75;5111806;27;45363;-49
2021/06/07 07:15:37;;;;;;;;;14.75;14.75;;;;;18.97;54.49;101847.94;5100207;27;45420;-45
2021/06/07 07:18:05;;;;;;;;;15.50;13.25;;;;;19.02;54.68;101853.97;5100119;27;45438;-48
2021/06/07 07:20:30;;;;;;;;;17.50;15.25;;;;;19.09;54.26;101854.66;5100409;27;45372;-48
2021/06/07 07:22:56;;;;;;;;;15.50;13.25;;;;;19.14;54.50;101855.38;5100313;27;45302;-48
2021/06/07 07:25:21;;;;;;;;;11.25;11.25;;;;;19.20;54.61;101849.84;5081792;27;45559;-50
2021/06/07 07:27:47;;;;;;;;;14.00;12.00;;;;;19.25;54.16;101855.88;5100250;27;45273;-49
2021/06/07 07:30:17;;;;;;;;;15.00;13.25;;;;;19.33;54.07;101848.53;5100260;27;45275;-51
2021/06/07 07:32:45;;;;;;;;;13.50;12.25;;;;;19.43;54.19;101853.53;5100227;27;45272;-49
2021/06/07 07:35:12;;;;;;;;;13.50;11.25;;;;;19.51;54.15;101853.25;5081768;27;45972;-51
2021/06/07 07:37:38;;;;;;;;;16.25;12.75;;;;;19.60;53.72;101858.31;5081676;27;45341;-51
2021/06/07 07:40:06;;;;;;;;;10.00;10.00;;;;;19.68;53.52;101853.56;5081818;27;45285;-48
2021/06/07 07:42:32;;;;;;;;;11.50;10.75;;;;;19.76;53.68;101851.50;5081586;27;45513;-48
2021/06/07 07:45:00;;;;;;;;;14.00;14.00;;;;;19.83;52.98;101840.66;5064904;27;48585;-47
2021/06/07 07:47:25;;;;;;;;;14.75;14.75;;;;;19.89;52.93;101851.09;5100040;27;45375;-49
2021/06/07 07:49:50;;;;;;;;;14.00;11.25;;;;;19.97;52.79;101849.91;5100193;27;45288;-50
2021/06/07 07:52:16;;;;;;;;;12.75;10.25;;;;;20.05;52.45;101844.28;5099828;27;45499;-49
2021/06/07 07:54:41;;;;;;;;;17.25;13.25;;;;;20.12;52.20;101853.81;5099734;27;45399;-50
2021/06/07 07:57:09;;;;;;;;;15.75;13.25;;;;;20.20;51.90;101849.97;5081560;27;45276;-49
2021/06/07 07:59:35;;;;;;;;;12.50;12.50;;;;;20.26;52.48;101853.31;5100241;27;45315;-47
2021/06/07 08:02:00;;;;;;;;;15.25;15.25;;;;;20.25;51.71;101838.22;5114637;27;45244;-50
2021/06/07 08:04:26;;;;;;;;;12.50;12.50;;;;;20.43;51.67;101852.66;5085033;27;46729;-48
2021/06/07 08:06:53;;;;;;;;;15.75;13.25;;;;;20.48;51.07;101849.81;5084896;27;45534;-46
2021/06/07 08:09:18;;;;;;;;;14.75;14.50;;;;;20.54;51.35;101838.91;5102150;27;45328;-49
2021/06/07 08:11:44;;;;;;;;;15.75;13.50;;;;;20.61;50.76;101837.69;5084557;27;45642;-50
2021/06/07 08:14:15;;;;;;;;;18.25;15.75;;;;;20.69;50.76;101831.19;5101980;27;48057;-47
2021/06/07 08:16:40;;;;;;;;;17.00;14.50;;;;;20.76;51.18;101838.94;5110121;27;45173;-47
2021/06/07 08:19:06;;;;;;;;;14.50;12.00;;;;;20.83;50.88;101841.38;5105836;27;45220;-49
2021/06/07 08:21:32;;;;;;;;;12.00;11.00;;;;;20.92;50.49;101836.53;5105038;27;45619;-50
2021/06/07 08:23:57;;;;;;;;;10.25;9.50;;;;;20.99;50.46;101838.94;5105049;27;47083;-47
2021/06/07 08:26:23;;;;;;;;;14.75;13.50;;;;;21.08;50.66;101831.44;5123785;27;45263;-49
2021/06/07 08:28:48;;;;;;;;;13.75;11.75;;;;;21.16;49.85;101832.94;5105382;27;45473;-49
2021/06/07 08:31:14;;;;;;;;;13.00;13.00;;;;;21.24;50.02;101830.78;5123461;27;45353;-49
2021/06/07 08:33:39;;;;;;;;;12.25;12.25;;;;;21.34;49.77;101839.28;5123657;27;45446;-50
2021/06/07 08:36:06;;;;;;;;;15.25;11.50;;;;;21.41;49.45;101838.97;5123368;27;45244;-48
2021/06/07 08:38:32;;;;;;;;;12.00;11.00;;;;;21.49;49.06;101840.44;5123616;27;45328;-50
2021/06/07 08:40:57;;;;;;;;;11.50;11.00;;;;;21.54;47.60;101838.44;5104905;27;45468;-46
2021/06/07 08:43:24;;;;;;;;;16.75;13.50;;;;;21.57;48.21;101832.97;5122965;27;45404;-46
2021/06/07 08:45:50;;;;;;;;;14.50;14.25;;;;;21.63;48.03;101838.06;5104819;27;45227;-51
2021/06/07 08:48:16;;;;;;;;;8.50;8.50;;;;;21.69;47.92;101834.28;5123523;27;45152;-47
2021/06/07 08:50:42;;;;;;;;;10.00;10.00;;;;;21.82;47.60;101834.59;5121925;27;45357;-48
2021/06/07 08:53:08;;;;;;;;;10.75;9.25;;;;;21.91;48.36;101836.84;5104444;27;48023;-50
2021/06/07 08:55:34;;;;;;;;;8.50;8.50;;;;;22.00;47.81;101828.44;5123388;27;45481;-48
2021/06/07 08:58:02;;;;;;;;;11.75;11.75;;;;;22.12;46.59;101837.69;5123078;27;45460;-46
2021/06/07 09:00:31;;;;;;;;;11.50;10.50;;;;;22.17;45.90;101834.81;5122502;27;45401;-49
2021/06/07 09:03:06;;;;;;;;;9.75;9.75;;;;;22.20;46.37;101838.22;5104394;27;47473;-47
2021/06/07 09:05:31;;;;;;;;;13.00;11.50;;;;;22.23;45.74;101834.53;5122783;27;45218;-49
2021/06/07 09:08:03;;;;;;;;;12.25;12.00;;;;;22.31;45.29;101836.84;5122976;27;45350;-48
2021/06/07 09:10:32;;;;;;;;;13.00;11.00;;;;;22.40;45.42;101831.97;5123071;27;45218;-48
2021/06/07 09:13:01;;;;;;;;;13.25;10.50;;;;;22.53;45.76;101837.63;5122318;27;45353;-46
2021/06/07 09:15:41;;;;;;;;;12.75;11.25;;;;;22.62;44.89;101833.63;5122240;27;45299;-49
2021/06/07 09:18:10;;;;;;;;;8.50;7.25;;;;;22.72;44.62;101837.59;5122747;27;45527;-48
2021/06/07 09:20:39;;;;;;;;;15.50;9.75;;;;;22.81;44.24;101835.44;5122500;27;45511;-50
2021/06/07 09:23:08;;;;;;;;;7.75;6.75;;;;;22.89;42.99;101834.09;5122312;27;45203;-48
2021/06/07 09:25:37;;;;;;;;;11.00;9.25;;;;;22.97;42.97;101835.56;5122550;27;45465;-49
2021/06/07 09:28:05;;;;;;;;;12.75;8.75;;;;;23.08;42.55;101830.53;5122362;27;45243;-50
2021/06/07 09:30:34;;;;;;;;;11.00;10.00;;;;;23.19;42.20;101836.25;5122633;27;45231;-50
2021/06/07 09:33:26;;;;;;;;;12.00;10.50;;;;;23.27;41.36;101835.84;5122248;27;46327;-50
2021/06/07 09:36:21;;;;;;;;;9.00;9.00;;;;;23.33;41.40;101829.31;5122101;27;45307;-51
2021/06/07 09:39:09;;;;;;;;;9.00;8.00;;;;;23.45;40.43;101841.22;5122370;27;45461;-49
2021/06/07 09:41:45;;;;;;;;;10.00;7.25;;;;;23.46;40.11;101840.25;5122207;27;45430;-50
2021/06/07 09:44:27;;;;;;;;;7.25;5.75;;;;;23.56;39.16;101843.34;5121862;27;46213;-48
2021/06/07 09:47:10;;;;;;;;;7.25;7.00;;;;;23.69;38.83;101839.94;5122293;27;45416;-54
2021/06/07 09:50:04;;;;;;;;;4.75;4.25;;;;;23.66;38.03;101821.34;5103977;27;45232;-46
2021/06/07 09:52:31;;;;;;;;;5.00;5.00;;;;;23.85;37.62;101836.47;5121884;27;45234;-50
2021/06/07 09:55:17;;;;;;;;;6.50;6.50;;;;;23.93;37.52;101834.25;5122009;27;46381;-50
2021/06/07 09:57:50;;;;;;;;;6.50;5.50;;;;;24.02;37.40;101832.91;5122041;27;45275;-51
2021/06/07 10:00:47;;;;;;;;;8.00;6.00;;;;;24.16;36.99;101830.34;5103392;27;45282;-49
2021/06/07 10:03:22;;;;;;;;;6.00;4.00;;;;;24.23;36.14;101830.88;5105031;27;45386;-49
2021/06/07 10:05:53;;;;;;;;;6.00;4.75;;;;;24.29;36.42;101827.00;5100989;27;46146;-50
2021/06/07 10:08:22;;;;;;;;;5.75;5.50;;;;;24.41;36.56;101828.13;5101163;27;45281;-49
2021/06/07 10:10:48;;;;;;;;;6.00;6.00;;;;;24.54;36.37;101833.66;5101383;27;45401;-50
2021/06/07 10:13:14;;;;;;;;;6.50;6.00;;;;;24.69;36.73;101829.28;5100876;27;45631;-48
2021/06/07 10:15:41;;;;;;;;;8.50;7.25;;;;;24.86;36.61;101833.72;5101071;27;46470;-50
2021/06/07 10:18:12;;;;;;;;;7.00;7.00;;;;;25.06;35.67;101827.16;5101147;27;45496;-47
2021/06/07 10:20:50;;;;;;;;;5.75;5.75;;;;;25.18;34.72;101821.03;5101112;27;45299;-47
2021/06/07 10:23:19;;;;;;;;;7.00;6.00;;;;;25.35;35.35;101822.75;5108584;27;45417;-48
2021/06/07 10:25:45;;;;;;;;;7.25;6.25;;;;;25.53;35.58;101831.56;5121231;27;46401;-50
2021/06/07 10:28:12;;;;;;;;;6.50;6.50;;;;;25.67;33.91;101819.94;5121567;27;45269;-46
2021/06/07 10:30:46;;;;;;;;;10.75;6.50;;;;;25.76;33.53;101821.22;5121740;27;45485;-47
2021/06/07 10:33:35;;;;;;;;;6.25;6.25;;;;;26.13;33.64;101823.50;5121674;27;45575;-46
2021/06/07 10:36:19;;;;;;;;;4.00;4.00;;;;;28.11;33.67;101823.81;5102718;27;47098;-49
2021/06/07 10:38:45;;;;;;;;;4.75;3.25;;;;;30.77;30.42;101831.38;5121484;27;45326;-49
2021/06/07 10:41:26;;;;;;;;;7.00;6.50;;;;;31.95;28.81;101812.38;5121963;27;45308;-47
2021/06/07 10:43:58;;;;;;;;;4.00;4.00;;;;;35.72;27.51;101825.22;5121220;27;45246;-48
2021/06/07 10:46:30;;;;;;;;;4.75;4.75;;;;;39.71;24.95;101828.63;5121409;27;45412;-48
2021/06/07 10:48:57;;;;;;;;;4.25;4.25;;;;;42.65;21.41;101831.34;5121483;27;45491;-50
2021/06/07 10:51:31;;;;;;;;;4.75;4.75;;;;;45.10;18.36;101839.31;5102806;27;45353;-48
2021/06/07 10:54:28;;;;;;;;;4.25;4.00;;;;;47.96;16.56;101839.25;5102672;27;45513;-47
2021/06/07 10:56:53;;;;;;;;;7.50;6.25;;;;;51.20;14.45;101839.22;5120910;27;46319;-51
2021/06/07 10:59:19;;;;;;;;;5.00;5.00;;;;;53.59;12.51;101839.28;5121563;27;45219;-50
2021/06/07 11:01:49;;;;;;;;;6.25;6.25;;;;;55.51;10.98;101843.06;5103140;27;45321;-52
2021/06/07 11:04:14;;;;;;;;;5.75;5.25;;;;;57.55;10.36;101834.59;5121369;27;45344;-48
2021/06/07 11:06:50;;;;;;;;;5.00;5.00;;;;;59.29;9.00;101828.47;5120680;27;45330;-48
2021/06/07 11:09:15;;;;;;;;;4.00;4.00;;;;;60.87;7.62;101833.22;5121230;27;45389;-53
2021/06/07 11:11:49;;;;;;;;;5.00;4.00;;;;;61.79;6.29;101828.81;5120945;27;45695;-51
2021/06/07 11:14:18;;;;;;;;;5.25;5.25;;;;;62.63;5.77;101824.97;5121150;27;45306;-52
2021/06/07 11:16:45;;;;;;;;;7.25;5.00;;;;;63.01;4.89;101811.63;5120566;27;47143;-47